createdAt,value
2023-02-14T00:01:30.474Z,22.17
2023-02-14T00:04:00.836Z,24.17
2023-02-14T00:06:31.960Z,25.45
2023-02-14T00:09:00.015Z,28.38
2023-02-14T00:11:27.620Z,20.50
2023-02-14T00:14:14.954Z,18.55
2023-02-14T00:16:42.919Z,17.60
2023-02-14T00:19:13.562Z,19.80
2023-02-14T00:21:41.889Z,19.67
2023-02-14T00:24:19.996Z,18.17
2023-02-14T00:26:48.141Z,15.38
2023-02-14T00:29:20.472Z,15.93
2023-02-14T00:31:48.460Z,18.80
2023-02-14T00:34:21.564Z,19.88
2023-02-14T00:36:50.041Z,19.63
2023-02-14T00:39:20.804Z,17.70
2023-02-14T00:41:48.813Z,20.00
2023-02-14T00:44:17.668Z,23.95
2023-02-14T00:46:45.782Z,17.73
2023-02-14T00:49:13.403Z,22.92
2023-02-14T00:51:41.348Z,27.52
2023-02-14T00:54:08.907Z,24.27
2023-02-14T00:56:36.623Z,27.30
2023-02-14T00:59:04.283Z,28.27
2023-02-14T01:01:32.324Z,25.45
2023-02-14T01:04:00.018Z,22.00
2023-02-14T01:06:27.744Z,24.23
2023-02-14T01:08:58.117Z,25.35
2023-02-14T01:11:28.668Z,25.27
2023-02-14T01:13:59.063Z,30.70
2023-02-14T01:16:28.714Z,27.40
2023-02-14T01:18:59.700Z,22.58
2023-02-14T01:21:30.206Z,24.33
2023-02-14T01:24:00.102Z,20.50
2023-02-14T01:26:28.920Z,24.77
2023-02-14T01:28:56.816Z,23.90
2023-02-14T01:31:27.166Z,27.05
2023-02-14T01:33:58.247Z,28.15
2023-02-14T01:36:52.109Z,28.17
2023-02-14T01:39:19.718Z,25.05
2023-02-14T01:41:50.856Z,26.05
2023-02-14T01:44:18.639Z,24.13
2023-02-14T01:46:46.423Z,27.27
2023-02-14T01:49:30.070Z,28.77
2023-02-14T01:52:21.367Z,25.20
2023-02-14T01:54:58.211Z,32.47
2023-02-14T01:57:33.886Z,34.42
2023-02-14T02:00:22.566Z,30.35
2023-02-14T02:02:50.160Z,33.20
2023-02-14T02:05:23.813Z,32.63
2023-02-14T02:07:54.232Z,48.35
2023-02-14T02:10:22.185Z,41.75
2023-02-14T02:12:53.302Z,41.10
2023-02-14T02:15:25.607Z,39.83
2023-02-14T02:18:24.081Z,40.60
2023-02-14T02:21:05.261Z,39.40
2023-02-14T02:24:00.527Z,49.83
2023-02-14T02:26:54.244Z,44.85
2023-02-14T02:29:49.314Z,45.40
2023-02-14T02:32:29.432Z,48.65
2023-02-14T02:35:25.973Z,52.83
2023-02-14T02:38:17.731Z,43.95
2023-02-14T02:40:58.357Z,45.47
2023-02-14T02:43:45.355Z,42.90
2023-02-14T02:46:50.260Z,47.00
2023-02-14T02:50:04.640Z,47.47
2023-02-14T02:53:03.179Z,51.63
2023-02-14T02:56:00.772Z,47.08
2023-02-14T02:58:41.707Z,45.17
2023-02-14T03:01:14.565Z,47.90
2023-02-14T03:04:06.929Z,44.80
2023-02-14T03:06:35.539Z,37.70
2023-02-14T03:09:21.329Z,40.67
2023-02-14T03:12:15.465Z,43.55
2023-02-14T03:14:50.255Z,40.00
2023-02-14T03:17:31.008Z,36.20
2023-02-14T03:20:20.877Z,40.45
2023-02-14T03:23:08.663Z,38.40
2023-02-14T03:25:52.790Z,39.53
2023-02-14T03:28:29.328Z,37.75
2023-02-14T03:31:22.014Z,35.40
2023-02-14T03:34:09.005Z,39.45
2023-02-14T03:36:43.066Z,34.95
2023-02-14T03:39:24.838Z,35.85
2023-02-14T03:42:13.054Z,35.30
2023-02-14T03:44:43.303Z,30.67
2023-02-14T03:47:20.565Z,34.03
2023-02-14T03:49:53.917Z,33.03
2023-02-14T03:52:23.741Z,31.50
2023-02-14T03:54:55.810Z,39.33
2023-02-14T03:57:32.450Z,33.17
2023-02-14T04:00:00.128Z,29.08
2023-02-14T04:02:34.749Z,38.15
2023-02-14T04:05:06.481Z,33.70
2023-02-14T04:07:44.911Z,38.58
2023-02-14T04:10:12.733Z,40.10
2023-02-14T04:12:41.286Z,38.07
2023-02-14T04:15:09.703Z,36.85
2023-02-14T04:18:01.653Z,38.25
2023-02-14T04:20:29.915Z,32.95
2023-02-14T04:22:57.797Z,39.45
2023-02-14T04:25:26.296Z,43.63
2023-02-14T04:27:53.849Z,31.80
2023-02-14T04:30:23.010Z,40.60
2023-02-14T04:32:50.583Z,31.00
2023-02-14T04:35:18.450Z,33.45
2023-02-14T04:37:46.020Z,32.95
2023-02-14T04:40:17.176Z,29.85
2023-02-14T04:42:46.665Z,29.42
2023-02-14T04:45:14.478Z,26.38
2023-02-14T04:47:42.185Z,18.98
2023-02-14T04:50:10.120Z,27.52
2023-02-14T04:52:37.826Z,20.83
2023-02-14T04:55:06.857Z,24.95
2023-02-14T04:57:34.581Z,27.65
2023-02-14T05:00:02.560Z,21.75
2023-02-14T05:02:30.407Z,23.73
2023-02-14T05:04:58.185Z,22.58
2023-02-14T05:07:25.725Z,20.35
2023-02-14T05:09:53.469Z,25.27
2023-02-14T05:12:21.133Z,23.05
2023-02-14T05:14:48.723Z,16.60
2023-02-14T05:17:16.908Z,21.05
2023-02-14T05:19:45.596Z,21.05
2023-02-14T05:22:13.167Z,25.35
2023-02-14T05:24:41.133Z,25.77
2023-02-14T05:27:11.691Z,22.77
2023-02-14T05:29:41.635Z,22.92
2023-02-14T05:32:09.276Z,22.05
2023-02-14T05:34:37.265Z,26.60
2023-02-14T05:37:05.037Z,19.27
2023-02-14T05:39:33.772Z,20.92
2023-02-14T05:42:01.361Z,20.05
2023-02-14T05:44:28.850Z,21.05
2023-02-14T05:46:56.988Z,25.85
2023-02-14T05:49:24.466Z,21.10
2023-02-14T05:51:52.884Z,23.77
2023-02-14T05:54:20.388Z,22.48
2023-02-14T05:56:49.387Z,24.90
2023-02-14T05:59:17.192Z,23.63
2023-02-14T06:01:44.810Z,18.92
2023-02-14T06:04:12.569Z,19.80
2023-02-14T06:06:40.266Z,21.92
2023-02-14T06:09:08.211Z,22.98
2023-02-14T06:11:35.744Z,24.45
2023-02-14T06:14:04.431Z,21.02
2023-02-14T06:16:34.032Z,26.10
2023-02-14T06:19:02.670Z,21.97
2023-02-14T06:21:30.313Z,21.08
2023-02-14T06:23:57.908Z,22.23
2023-02-14T06:26:28.016Z,21.25
2023-02-14T06:28:57.102Z,21.92
2023-02-14T06:31:25.930Z,24.33
2023-02-14T06:33:54.504Z,22.58
2023-02-14T06:36:22.988Z,20.77
2023-02-14T06:38:51.134Z,22.58
2023-02-14T06:41:19.293Z,23.92
2023-02-14T06:43:50.937Z,21.83
2023-02-14T06:46:19.517Z,22.48
2023-02-14T06:48:48.250Z,21.48
2023-02-14T06:51:15.761Z,22.17
2023-02-14T06:53:43.836Z,22.05
2023-02-14T06:56:11.437Z,23.70
2023-02-14T07:01:08.384Z,18.60
2023-02-14T07:03:36.066Z,15.35
2023-02-14T07:06:03.797Z,15.02
2023-02-14T07:08:31.573Z,19.98
2023-02-14T07:10:59.624Z,20.10
2023-02-14T07:13:27.487Z,17.15
2023-02-14T07:15:55.340Z,17.75
2023-02-14T07:18:23.058Z,18.45
2023-02-14T07:20:51.889Z,13.35
2023-02-14T07:23:20.077Z,17.38
2023-02-14T07:25:47.692Z,16.85
2023-02-14T07:28:15.223Z,16.73
2023-02-14T07:30:42.857Z,13.85
2023-02-14T07:33:10.473Z,13.50
2023-02-14T07:35:38.358Z,14.00
2023-02-14T07:38:07.170Z,18.35
2023-02-14T07:40:35.360Z,16.48
2023-02-14T07:43:02.914Z,14.38
2023-02-14T07:45:30.817Z,14.52
2023-02-14T07:48:02.092Z,17.95
2023-02-14T07:50:29.993Z,15.18
2023-02-14T07:52:57.700Z,16.90
2023-02-14T07:55:25.440Z,15.73
2023-02-14T07:57:53.202Z,28.95
2023-02-14T08:00:21.489Z,12.18
2023-02-14T08:02:56.112Z,15.52
2023-02-14T08:05:23.769Z,11.27
2023-02-14T08:07:51.387Z,11.23
2023-02-14T08:10:19.029Z,14.38
2023-02-14T08:13:00.050Z,16.00
2023-02-14T08:15:48.947Z,12.27
2023-02-14T08:20:48.854Z,12.02
2023-02-14T08:23:20.268Z,13.48
2023-02-14T08:25:52.691Z,10.18
2023-02-14T08:28:23.739Z,10.15
2023-02-14T08:30:52.349Z,52.55
2023-02-14T08:33:20.545Z,67.18
2023-02-14T08:35:49.001Z,12.18
2023-02-14T08:38:16.538Z,11.82
2023-02-14T08:40:44.166Z,11.05
2023-02-14T08:43:12.148Z,14.27
2023-02-14T08:45:40.678Z,13.98
2023-02-14T08:48:11.229Z,16.58
2023-02-14T08:50:40.322Z,12.85
2023-02-14T08:53:10.012Z,13.55
2023-02-14T08:58:07.162Z,9.25
2023-02-14T09:00:35.143Z,11.48
2023-02-14T09:03:04.515Z,9.27
2023-02-14T09:05:33.699Z,9.82
2023-02-14T09:08:03.475Z,10.07
2023-02-14T09:12:59.037Z,10.15
2023-02-14T09:15:26.747Z,11.63
2023-02-14T09:17:55.353Z,11.13
2023-02-14T09:20:23.334Z,12.48
2023-02-14T09:22:51.025Z,12.85
2023-02-14T09:25:18.606Z,10.18
2023-02-14T09:27:46.762Z,12.95
2023-02-14T09:30:15.452Z,10.80
2023-02-14T09:32:43.278Z,8.60
2023-02-14T09:35:11.239Z,10.52
2023-02-14T09:37:57.633Z,8.52
2023-02-14T09:40:25.822Z,8.52
2023-02-14T09:43:01.669Z,8.38
2023-02-14T09:45:32.685Z,7.15
2023-02-14T09:48:26.102Z,8.93
2023-02-14T09:51:01.520Z,7.43
2023-02-14T09:54:01.245Z,10.40
2023-02-14T09:56:54.069Z,8.52
2023-02-14T09:59:50.584Z,25.23
2023-02-14T10:02:42.570Z,8.85
2023-02-14T10:05:22.633Z,8.48
2023-02-14T10:07:56.182Z,5.85
2023-02-14T10:10:33.653Z,8.77
2023-02-14T10:13:19.749Z,6.23
2023-02-14T10:16:14.536Z,5.63
2023-02-14T10:19:22.590Z,9.20
2023-02-14T10:22:00.806Z,8.40
2023-02-14T10:24:35.673Z,7.10
2023-02-14T10:27:44.653Z,5.70
2023-02-14T10:30:21.656Z,8.77
2023-02-14T10:33:04.649Z,9.00
2023-02-14T10:35:42.935Z,6.93
2023-02-14T10:38:25.501Z,7.50
2023-02-14T10:41:30.899Z,6.20
2023-02-14T10:44:17.333Z,8.18
2023-02-14T10:47:02.156Z,6.88
2023-02-14T10:50:03.384Z,9.27
2023-02-14T10:52:40.962Z,7.43
2023-02-14T10:55:31.944Z,5.47
2023-02-14T10:58:04.386Z,5.70
2023-02-14T11:00:37.681Z,10.15
2023-02-14T11:03:09.575Z,7.72
2023-02-14T11:05:48.936Z,7.50
2023-02-14T11:08:23.243Z,5.05
2023-02-14T11:10:52.460Z,6.30
2023-02-14T11:16:12.893Z,4.70
2023-02-14T11:18:41.341Z,3.45
2023-02-14T11:21:17.801Z,5.53
2023-02-14T11:23:48.690Z,6.32
2023-02-14T11:26:28.246Z,4.05
2023-02-14T11:29:02.757Z,4.40
2023-02-14T11:31:34.059Z,3.65
2023-02-14T11:34:05.266Z,2.63
2023-02-14T11:36:41.629Z,2.95
2023-02-14T11:39:36.622Z,3.65
2023-02-14T11:42:05.733Z,6.35
2023-02-14T11:44:36.918Z,5.35
2023-02-14T11:47:27.373Z,4.72
2023-02-14T11:50:06.149Z,5.18
2023-02-14T11:52:40.439Z,3.63
2023-02-14T11:55:08.175Z,5.47
2023-02-14T11:57:39.680Z,3.72
2023-02-14T12:00:19.328Z,4.85
2023-02-14T12:05:35.433Z,6.80
2023-02-14T12:08:06.756Z,5.13
2023-02-14T12:10:37.909Z,7.05
2023-02-14T12:13:08.183Z,4.75
2023-02-14T12:15:44.344Z,9.48
2023-02-14T12:18:48.710Z,5.97
2023-02-14T12:22:03.073Z,6.05
2023-02-14T12:24:49.983Z,5.70
2023-02-14T12:27:34.728Z,4.75
2023-02-14T12:30:12.004Z,6.80
2023-02-14T12:32:52.285Z,7.47
2023-02-14T12:35:28.275Z,5.25
2023-02-14T12:38:14.903Z,8.73
2023-02-14T12:41:19.587Z,4.15
2023-02-14T12:43:54.852Z,5.55
2023-02-14T12:47:02.382Z,7.68
2023-02-14T12:49:55.025Z,11.57
2023-02-14T12:52:28.307Z,8.25
2023-02-14T12:55:20.419Z,12.07
2023-02-14T12:58:03.877Z,7.50
2023-02-14T13:00:58.045Z,6.82
2023-02-14T13:03:58.477Z,6.55
2023-02-14T13:06:38.722Z,8.02
2023-02-14T13:09:45.076Z,5.38
2023-02-14T13:12:25.039Z,6.43
2023-02-14T13:17:38.929Z,7.43
2023-02-14T13:20:22.062Z,4.18
2023-02-14T13:22:49.714Z,6.97
2023-02-14T13:25:33.943Z,5.72
2023-02-14T13:28:05.860Z,7.80
2023-02-14T13:30:38.659Z,9.65
2023-02-14T13:33:21.649Z,5.70
2023-02-14T13:35:50.778Z,5.30
2023-02-14T13:38:19.260Z,8.02
2023-02-14T13:40:47.742Z,7.90
2023-02-14T13:43:51.477Z,7.53
2023-02-14T13:46:34.459Z,9.80
2023-02-14T13:49:37.081Z,4.25
2023-02-14T13:52:06.552Z,7.95
2023-02-14T13:54:48.849Z,7.07
2023-02-14T13:57:36.571Z,6.90
2023-02-14T14:00:19.269Z,7.32
2023-02-14T14:02:49.480Z,5.78
2023-02-14T14:05:35.862Z,8.35
2023-02-14T14:08:36.155Z,6.97
2023-02-14T14:11:23.530Z,14.68
2023-02-14T14:13:56.565Z,18.73
2023-02-14T14:16:24.491Z,5.88
2023-02-14T14:19:17.123Z,6.25
2023-02-14T14:22:00.122Z,6.35
2023-02-14T14:24:32.867Z,7.13
2023-02-14T14:27:17.684Z,5.53
2023-02-14T14:29:58.918Z,5.57
2023-02-14T14:32:32.478Z,6.10
2023-02-14T14:35:01.679Z,10.63
2023-02-14T14:40:01.396Z,8.80
2023-02-14T14:42:35.003Z,6.97
2023-02-14T14:45:07.105Z,5.78
2023-02-14T14:47:44.676Z,8.02
2023-02-14T14:50:30.228Z,5.72
2023-02-14T14:53:26.874Z,6.97
2023-02-14T14:55:55.971Z,6.93
2023-02-14T14:58:39.772Z,7.68
2023-02-14T15:01:14.130Z,7.85
2023-02-14T15:03:42.182Z,5.78
2023-02-14T15:06:22.669Z,5.18
2023-02-14T15:08:51.637Z,7.30
2023-02-14T15:11:45.046Z,5.20
2023-02-14T15:14:20.147Z,5.18
2023-02-14T15:16:53.952Z,3.75
2023-02-14T15:19:34.256Z,5.78
2023-02-14T15:22:04.653Z,4.75
2023-02-14T15:24:35.866Z,6.13
2023-02-14T15:27:03.933Z,8.63
2023-02-14T15:29:33.306Z,11.65
2023-02-14T15:32:03.382Z,5.88
2023-02-14T15:34:36.277Z,6.22
2023-02-14T15:37:06.779Z,5.75
2023-02-14T15:39:41.908Z,7.03
2023-02-14T15:42:27.724Z,6.10
2023-02-14T15:45:21.402Z,9.05
2023-02-14T15:47:53.002Z,5.50
2023-02-14T15:50:27.904Z,5.20
2023-02-14T15:53:08.460Z,7.20
2023-02-14T15:55:37.065Z,7.25
2023-02-14T15:58:12.712Z,6.50
2023-02-14T16:00:43.647Z,10.60
2023-02-14T16:03:33.965Z,20.30
2023-02-14T16:06:02.124Z,8.20
2023-02-14T16:08:33.531Z,6.22
2023-02-14T16:11:03.339Z,5.30
2023-02-14T16:13:36.701Z,6.50
2023-02-14T16:16:11.333Z,5.55
2023-02-14T16:18:43.930Z,5.55
2023-02-14T16:21:20.498Z,6.35
2023-02-14T16:24:08.258Z,5.75
2023-02-14T16:26:46.035Z,7.95
2023-02-14T16:29:16.225Z,4.70
2023-02-14T16:32:06.257Z,10.38
2023-02-14T16:34:35.197Z,7.75
2023-02-14T16:37:22.013Z,4.28
2023-02-14T16:39:52.684Z,4.35
2023-02-14T16:42:21.509Z,6.25
2023-02-14T16:44:49.288Z,7.82
2023-02-14T16:47:19.243Z,6.22
2023-02-14T16:49:47.828Z,13.10
2023-02-14T16:52:23.872Z,7.25
2023-02-14T16:54:52.681Z,9.25
2023-02-14T16:57:34.676Z,7.18
2023-02-14T17:00:02.880Z,6.45
2023-02-14T17:02:30.667Z,9.70
2023-02-14T17:04:58.701Z,7.97
2023-02-14T17:07:28.721Z,7.53
2023-02-14T17:10:00.478Z,8.10
2023-02-14T17:12:34.462Z,6.80
2023-02-14T17:15:10.961Z,8.77
2023-02-14T17:17:39.237Z,11.57
2023-02-14T17:20:08.411Z,7.10
2023-02-14T17:22:37.682Z,6.15
2023-02-14T17:25:05.945Z,6.75
2023-02-14T17:27:33.662Z,9.05
2023-02-14T17:30:01.783Z,8.55
2023-02-14T17:32:29.809Z,10.18
2023-02-14T17:34:58.444Z,8.27
2023-02-14T17:37:25.942Z,9.05
2023-02-14T17:39:53.588Z,7.18
2023-02-14T17:42:21.601Z,5.85
2023-02-14T17:44:49.227Z,7.70
2023-02-14T17:47:18.316Z,8.85
2023-02-14T17:49:48.571Z,8.05
2023-02-14T17:52:16.568Z,4.55
2023-02-14T17:54:44.813Z,6.82
2023-02-14T17:57:12.825Z,7.13
2023-02-14T17:59:42.726Z,7.85
2023-02-14T18:02:10.472Z,6.57
2023-02-14T18:04:38.577Z,6.43
2023-02-14T18:07:11.829Z,6.07
2023-02-14T18:09:39.350Z,8.57
2023-02-14T18:12:10.333Z,4.82
2023-02-14T18:14:43.011Z,5.70
2023-02-14T18:17:13.149Z,4.65
2023-02-14T18:19:40.812Z,5.28
2023-02-14T18:22:08.547Z,4.65
2023-02-14T18:24:36.906Z,4.43
2023-02-14T18:27:06.151Z,5.93
2023-02-14T18:29:33.873Z,4.38
2023-02-14T18:32:01.384Z,4.10
2023-02-14T18:34:30.090Z,5.60
2023-02-14T18:36:59.976Z,4.55
2023-02-14T18:41:59.957Z,4.65
2023-02-14T18:44:29.328Z,4.35
2023-02-14T18:46:56.987Z,5.15
2023-02-14T18:49:24.585Z,7.10
2023-02-14T18:51:52.568Z,12.82
2023-02-14T18:54:20.081Z,5.78
2023-02-14T18:56:47.728Z,4.97
2023-02-14T18:59:15.355Z,4.55
2023-02-14T19:01:45.346Z,6.38
2023-02-14T19:04:13.857Z,4.22
2023-02-14T19:06:42.987Z,4.28
2023-02-14T19:09:14.087Z,4.13
2023-02-14T19:11:42.182Z,5.63
2023-02-14T19:14:10.742Z,5.45
2023-02-14T19:16:44.017Z,3.85
2023-02-14T19:19:12.821Z,3.25
2023-02-14T19:21:46.183Z,5.10
2023-02-14T19:24:18.353Z,4.03
2023-02-14T19:26:46.568Z,4.60
2023-02-14T19:29:19.311Z,4.95
2023-02-14T19:31:50.133Z,2.85
2023-02-14T19:34:23.755Z,4.25
2023-02-14T19:36:52.928Z,3.58
2023-02-14T19:39:23.211Z,4.55
2023-02-14T19:41:54.615Z,4.30
2023-02-14T19:44:25.096Z,6.07
2023-02-14T19:46:56.762Z,4.93
2023-02-14T19:49:24.948Z,8.93
2023-02-14T19:51:53.230Z,4.05
2023-02-14T19:54:24.267Z,3.85
2023-02-14T19:56:54.417Z,4.43
2023-02-14T19:59:22.919Z,3.03
2023-02-14T20:01:52.920Z,6.00
2023-02-14T20:04:24.107Z,10.43
2023-02-14T20:06:52.886Z,3.97
2023-02-14T20:09:24.252Z,6.93
2023-02-14T20:11:55.368Z,14.68
2023-02-14T20:14:26.812Z,8.05
2023-02-14T20:17:00.313Z,7.35
2023-02-14T20:19:32.501Z,3.47
2023-02-14T20:22:01.054Z,5.72
2023-02-14T20:24:30.952Z,3.80
2023-02-14T20:27:00.520Z,4.88
2023-02-14T20:31:59.992Z,4.10
2023-02-14T20:34:28.328Z,3.97
2023-02-14T20:36:59.339Z,5.80
2023-02-14T20:39:30.792Z,8.00
2023-02-14T20:41:59.533Z,3.80
2023-02-14T20:44:28.256Z,4.78
2023-02-14T20:46:57.151Z,4.80
2023-02-14T20:49:27.060Z,4.00
2023-02-14T20:51:54.929Z,5.82
2023-02-14T20:54:25.046Z,3.78
2023-02-14T20:56:53.094Z,3.83
2023-02-14T20:59:28.831Z,8.43
2023-02-14T21:01:59.321Z,3.53
2023-02-14T21:04:27.992Z,9.07
2023-02-14T21:06:57.888Z,11.18
2023-02-14T21:09:26.413Z,3.65
2023-02-14T21:11:54.194Z,6.43
2023-02-14T21:14:21.893Z,3.65
2023-02-14T21:16:50.940Z,5.25
2023-02-14T21:19:18.641Z,4.10
2023-02-14T21:21:46.184Z,4.43
2023-02-14T21:24:15.617Z,3.97
2023-02-14T21:26:44.774Z,4.40
2023-02-14T21:29:12.659Z,4.53
2023-02-14T21:31:40.678Z,1.70
2023-02-14T21:34:11.362Z,2.40
2023-02-14T21:36:39.167Z,3.75
2023-02-14T21:39:06.947Z,3.95
2023-02-14T21:41:36.259Z,3.17
2023-02-14T21:44:04.735Z,3.13
2023-02-14T21:46:38.397Z,4.80
2023-02-14T21:49:26.234Z,5.38
2023-02-14T21:51:53.953Z,4.18
2023-02-14T21:54:22.815Z,3.28
2023-02-14T21:56:50.577Z,3.15
2023-02-14T21:59:19.884Z,4.53
2023-02-14T22:01:47.414Z,3.17
2023-02-14T22:04:14.944Z,3.58
2023-02-14T22:06:43.405Z,5.28
2023-02-14T22:09:14.153Z,4.22
2023-02-14T22:11:42.209Z,2.33
2023-02-14T22:14:09.791Z,2.22
2023-02-14T22:16:38.179Z,4.13
2023-02-14T22:19:07.965Z,4.32
2023-02-14T22:21:36.338Z,2.00
2023-02-14T22:24:04.236Z,3.60
2023-02-14T22:26:38.862Z,2.97
2023-02-14T22:29:11.205Z,2.40
2023-02-14T22:31:43.570Z,3.45
2023-02-14T22:34:14.488Z,2.15
2023-02-14T22:36:42.435Z,2.00
2023-02-14T22:39:13.632Z,2.30
2023-02-14T22:41:41.930Z,2.25
2023-02-14T22:44:09.787Z,2.33
2023-02-14T22:46:38.018Z,2.80
2023-02-14T22:49:06.993Z,2.80
2023-02-14T22:51:37.183Z,2.63
2023-02-14T22:54:09.254Z,2.15
2023-02-14T22:56:39.810Z,2.25
2023-02-14T22:59:19.405Z,2.88
2023-02-14T23:01:49.363Z,3.15
2023-02-14T23:04:19.467Z,2.67
2023-02-14T23:06:48.801Z,3.08
2023-02-14T23:09:17.487Z,4.35
2023-02-14T23:11:47.129Z,3.92
2023-02-14T23:14:36.152Z,4.10
2023-02-14T23:17:23.406Z,2.58
2023-02-14T23:20:09.564Z,1.73
2023-02-14T23:22:39.914Z,3.30
2023-02-14T23:25:10.504Z,2.22
2023-02-14T23:27:44.865Z,3.72
2023-02-14T23:30:17.582Z,3.33
2023-02-14T23:32:45.717Z,2.70
2023-02-14T23:35:13.813Z,1.90
2023-02-14T23:37:41.934Z,3.30
2023-02-14T23:40:10.213Z,4.93
2023-02-14T23:42:41.433Z,3.53
2023-02-14T23:45:28.934Z,5.00
2023-02-14T23:47:56.662Z,5.80
2023-02-14T23:50:26.143Z,3.03
2023-02-14T23:52:53.671Z,2.47
2023-02-14T23:55:21.289Z,3.47
2023-02-14T23:57:49.339Z,4.88
